sensor_id;sensor_type;location;lat;lon;timestamp;pressure;altitude;pressure_sealevel;temperature;humidity
4469;BME280;2247;42.666;23.292;2023-02-16T00:01:48;95605.19;;;7.00;53.38
4469;BME280;2247;42.666;23.292;2023-02-16T00:04:18;95612.09;;;6.95;53.52
4469;BME280;2247;42.666;23.292;2023-02-16T00:06:46;95611.06;;;7.14;52.78
4469;BME280;2247;42.666;23.292;2023-02-16T00:09:13;95609.19;;;7.21;52.76
4469;BME280;2247;42.666;23.292;2023-02-16T00:11:41;95607.44;;;7.15;52.92
4469;BME280;2247;42.666;23.292;2023-02-16T00:14:26;95602.41;;;6.95;53.47
4469;BME280;2247;42.666;23.292;2023-02-16T00:16:55;95604.25;;;6.95;53.33
4469;BME280;2247;42.666;23.292;2023-02-16T00:19:26;95596.19;;;6.71;53.13
4469;BME280;2247;42.666;23.292;2023-02-16T00:21:54;95594.84;;;6.87;52.83
4469;BME280;2247;42.666;23.292;2023-02-16T00:24:22;95600.88;;;6.88;52.98
4469;BME280;2247;42.666;23.292;2023-02-16T00:26:49;95603.97;;;7.03;52.65
4469;BME280;2247;42.666;23.292;2023-02-16T00:29:19;95595.66;;;6.88;53.02
4469;BME280;2247;42.666;23.292;2023-02-16T00:31:46;95601.34;;;7.03;52.66
4469;BME280;2247;42.666;23.292;2023-02-16T00:34:24;95597.75;;;7.16;52.22
4469;BME280;2247;42.666;23.292;2023-02-16T00:36:52;95601.53;;;7.20;52.05
4469;BME280;2247;42.666;23.292;2023-02-16T00:39:19;95597.09;;;7.20;52.11
4469;BME280;2247;42.666;23.292;2023-02-16T00:41:47;95602.66;;;7.12;52.56
4469;BME280;2247;42.666;23.292;2023-02-16T00:44:22;95589.22;;;7.20;52.36
4469;BME280;2247;42.666;23.292;2023-02-16T00:46:50;95602.72;;;7.24;52.16
4469;BME280;2247;42.666;23.292;2023-02-16T00:49:18;95593.91;;;7.18;52.16
4469;BME280;2247;42.666;23.292;2023-02-16T00:51:47;95562.97;;;7.08;51.93
4469;BME280;2247;42.666;23.292;2023-02-16T00:54:14;95595.56;;;7.31;51.93
4469;BME280;2247;42.666;23.292;2023-02-16T00:56:42;95581.31;;;7.08;52.09
4469;BME280;2247;42.666;23.292;2023-02-16T00:59:13;95578.34;;;7.05;51.98
4469;BME280;2247;42.666;23.292;2023-02-16T01:01:41;95593.53;;;6.96;52.44
4469;BME280;2247;42.666;23.292;2023-02-16T01:04:13;95600.47;;;6.91;52.46
4469;BME280;2247;42.666;23.292;2023-02-16T01:06:43;95587.78;;;6.88;52.80
4469;BME280;2247;42.666;23.292;2023-02-16T01:09:29;95595.84;;;6.86;52.74
4469;BME280;2247;42.666;23.292;2023-02-16T01:12:16;95590.78;;;6.91;52.53
4469;BME280;2247;42.666;23.292;2023-02-16T01:14:45;95590.13;;;6.78;53.05
4469;BME280;2247;42.666;23.292;2023-02-16T01:17:13;95585.56;;;6.91;52.35
4469;BME280;2247;42.666;23.292;2023-02-16T01:19:40;95589.38;;;7.07;51.88
4469;BME280;2247;42.666;23.292;2023-02-16T01:22:07;95585.88;;;7.13;51.80
4469;BME280;2247;42.666;23.292;2023-02-16T01:24:35;95579.56;;;7.02;51.93
4469;BME280;2247;42.666;23.292;2023-02-16T01:27:02;95575.56;;;7.00;52.13
4469;BME280;2247;42.666;23.292;2023-02-16T01:29:29;95573.09;;;7.05;52.06
4469;BME280;2247;42.666;23.292;2023-02-16T01:31:56;95567.63;;;7.06;52.07
4469;BME280;2247;42.666;23.292;2023-02-16T01:34:23;95567.53;;;7.13;52.02
4469;BME280;2247;42.666;23.292;2023-02-16T01:36:50;95559.38;;;7.21;51.72
4469;BME280;2247;42.666;23.292;2023-02-16T01:39:19;95556.56;;;7.23;51.33
4469;BME280;2247;42.666;23.292;2023-02-16T01:42:11;95560.09;;;7.28;51.32
4469;BME280;2247;42.666;23.292;2023-02-16T01:44:42;95551.09;;;7.24;51.08
4469;BME280;2247;42.666;23.292;2023-02-16T01:47:18;95556.69;;;7.28;51.09
4469;BME280;2247;42.666;23.292;2023-02-16T01:49:49;95554.94;;;7.22;51.12
4469;BME280;2247;42.666;23.292;2023-02-16T01:52:24;95556.19;;;7.19;51.26
4469;BME280;2247;42.666;23.292;2023-02-16T01:54:55;95557.66;;;6.97;51.83
4469;BME280;2247;42.666;23.292;2023-02-16T01:57:30;95554.53;;;6.88;52.41
4469;BME280;2247;42.666;23.292;2023-02-16T02:00:15;95520.19;;;6.78;51.99
4469;BME280;2247;42.666;23.292;2023-02-16T02:02:45;95550.66;;;7.09;52.03
4469;BME280;2247;42.666;23.292;2023-02-16T02:05:20;95552.13;;;7.05;51.58
4469;BME280;2247;42.666;23.292;2023-02-16T02:08:15;95550.69;;;6.91;51.94
4469;BME280;2247;42.666;23.292;2023-02-16T02:10:55;95554.59;;;7.00;51.83
4469;BME280;2247;42.666;23.292;2023-02-16T02:16:16;95549.22;;;6.95;51.72
4469;BME280;2247;42.666;23.292;2023-02-16T02:18:44;95545.72;;;6.83;51.67
4469;BME280;2247;42.666;23.292;2023-02-16T02:21:34;95550.66;;;6.72;52.14
4469;BME280;2247;42.666;23.292;2023-02-16T02:27:40;95543.94;;;6.40;53.33
4469;BME280;2247;42.666;23.292;2023-02-16T02:30:21;95551.47;;;6.30;53.30
4469;BME280;2247;42.666;23.292;2023-02-16T02:33:09;95544.50;;;5.99;53.50
4469;BME280;2247;42.666;23.292;2023-02-16T02:35:47;95547.84;;;6.31;53.10
4469;BME280;2247;42.666;23.292;2023-02-16T02:38:20;95537.63;;;6.48;52.45
4469;BME280;2247;42.666;23.292;2023-02-16T02:40:56;95535.63;;;6.25;54.09
4469;BME280;2247;42.666;23.292;2023-02-16T02:43:30;95541.97;;;6.11;55.40
4469;BME280;2247;42.666;23.292;2023-02-16T02:46:06;95544.75;;;6.16;54.12
4469;BME280;2247;42.666;23.292;2023-02-16T02:48:34;95540.13;;;6.18;53.14
4469;BME280;2247;42.666;23.292;2023-02-16T02:51:02;95538.03;;;6.26;52.70
4469;BME280;2247;42.666;23.292;2023-02-16T02:53:53;95538.56;;;6.35;53.39
4469;BME280;2247;42.666;23.292;2023-02-16T02:56:34;95546.09;;;6.50;52.44
4469;BME280;2247;42.666;23.292;2023-02-16T02:59:19;95548.72;;;6.25;52.85
4469;BME280;2247;42.666;23.292;2023-02-16T03:02:04;95551.91;;;6.27;52.75
4469;BME280;2247;42.666;23.292;2023-02-16T03:04:31;95547.91;;;6.24;52.94
4469;BME280;2247;42.666;23.292;2023-02-16T03:06:59;95555.56;;;6.26;53.02
4469;BME280;2247;42.666;23.292;2023-02-16T03:09:28;95553.03;;;6.38;52.72
4469;BME280;2247;42.666;23.292;2023-02-16T03:11:56;95553.97;;;6.43;52.75
4469;BME280;2247;42.666;23.292;2023-02-16T03:14:45;95555.75;;;6.49;52.57
4469;BME280;2247;42.666;23.292;2023-02-16T03:17:16;95556.56;;;6.50;52.54
4469;BME280;2247;42.666;23.292;2023-02-16T03:20:03;95550.81;;;6.59;52.21
4469;BME280;2247;42.666;23.292;2023-02-16T03:22:49;95549.94;;;6.65;52.03
4469;BME280;2247;42.666;23.292;2023-02-16T03:25:35;95547.31;;;6.65;51.97
4469;BME280;2247;42.666;23.292;2023-02-16T03:28:24;95541.78;;;6.73;51.92
4469;BME280;2247;42.666;23.292;2023-02-16T03:31:13;95538.59;;;6.71;51.50
4469;BME280;2247;42.666;23.292;2023-02-16T03:33:41;95545.50;;;6.66;51.49
4469;BME280;2247;42.666;23.292;2023-02-16T03:36:08;95542.59;;;6.74;51.32
4469;BME280;2247;42.666;23.292;2023-02-16T03:38:36;95536.78;;;6.72;51.17
4469;BME280;2247;42.666;23.292;2023-02-16T03:41:04;95536.28;;;6.63;51.24
4469;BME280;2247;42.666;23.292;2023-02-16T03:43:31;95540.47;;;6.64;51.37
4469;BME280;2247;42.666;23.292;2023-02-16T03:45:58;95548.31;;;6.64;51.40
4469;BME280;2247;42.666;23.292;2023-02-16T03:48:27;95543.59;;;6.55;51.85
4469;BME280;2247;42.666;23.292;2023-02-16T03:50:53;95544.91;;;6.46;51.94
4469;BME280;2247;42.666;23.292;2023-02-16T03:53:20;95546.28;;;6.48;52.03
4469;BME280;2247;42.666;23.292;2023-02-16T03:55:48;95546.63;;;6.33;51.78
4469;BME280;2247;42.666;23.292;2023-02-16T03:58:16;95539.84;;;6.26;52.01
4469;BME280;2247;42.666;23.292;2023-02-16T04:00:44;95541.81;;;6.30;51.39
4469;BME280;2247;42.666;23.292;2023-02-16T04:03:11;95541.44;;;6.27;51.58
4469;BME280;2247;42.666;23.292;2023-02-16T04:05:40;95538.75;;;6.15;52.21
4469;BME280;2247;42.666;23.292;2023-02-16T04:08:08;95533.72;;;6.14;52.13
4469;BME280;2247;42.666;23.292;2023-02-16T04:10:36;95530.59;;;6.23;52.36
4469;BME280;2247;42.666;23.292;2023-02-16T04:13:04;95527.09;;;6.36;51.99
4469;BME280;2247;42.666;23.292;2023-02-16T04:15:30;95531.59;;;6.47;51.74
4469;BME280;2247;42.666;23.292;2023-02-16T04:17:58;95529.84;;;6.59;51.08
4469;BME280;2247;42.666;23.292;2023-02-16T04:20:26;95498.56;;;6.46;51.00
4469;BME280;2247;42.666;23.292;2023-02-16T04:22:55;95527.50;;;6.51;51.39
4469;BME280;2247;42.666;23.292;2023-02-16T04:25:22;95526.78;;;6.44;51.53
4469;BME280;2247;42.666;23.292;2023-02-16T04:27:50;95525.63;;;6.40;51.77
4469;BME280;2247;42.666;23.292;2023-02-16T04:30:19;95518.50;;;6.47;51.89
4469;BME280;2247;42.666;23.292;2023-02-16T04:32:46;95527.25;;;6.59;51.68
4469;BME280;2247;42.666;23.292;2023-02-16T04:35:13;95531.72;;;6.34;52.24
4469;BME280;2247;42.666;23.292;2023-02-16T04:37:40;95526.91;;;6.31;52.21
4469;BME280;2247;42.666;23.292;2023-02-16T04:40:10;95528.75;;;6.06;52.65
4469;BME280;2247;42.666;23.292;2023-02-16T04:42:38;95523.78;;;5.98;52.91
4469;BME280;2247;42.666;23.292;2023-02-16T04:45:06;95540.16;;;6.36;52.41
4469;BME280;2247;42.666;23.292;2023-02-16T04:47:33;95536.56;;;6.30;52.28
4469;BME280;2247;42.666;23.292;2023-02-16T04:50:00;95529.31;;;6.32;52.08
4469;BME280;2247;42.666;23.292;2023-02-16T04:52:27;95533.34;;;6.35;51.89
4469;BME280;2247;42.666;23.292;2023-02-16T04:54:54;95535.41;;;6.26;51.92
4469;BME280;2247;42.666;23.292;2023-02-16T04:57:24;95542.81;;;6.29;51.74
4469;BME280;2247;42.666;23.292;2023-02-16T04:59:51;95541.44;;;6.27;51.60
4469;BME280;2247;42.666;23.292;2023-02-16T05:02:17;95540.66;;;6.26;51.49
4469;BME280;2247;42.666;23.292;2023-02-16T05:04:45;95546.75;;;6.20;51.49
4469;BME280;2247;42.666;23.292;2023-02-16T05:07:12;95544.41;;;6.12;51.89
4469;BME280;2247;42.666;23.292;2023-02-16T05:09:38;95552.03;;;6.14;51.52
4469;BME280;2247;42.666;23.292;2023-02-16T05:12:06;95555.72;;;6.06;51.70
4469;BME280;2247;42.666;23.292;2023-02-16T05:14:52;95554.47;;;6.09;51.89
4469;BME280;2247;42.666;23.292;2023-02-16T05:17:21;95550.31;;;6.26;51.67
4469;BME280;2247;42.666;23.292;2023-02-16T05:19:50;95556.03;;;6.41;51.41
4469;BME280;2247;42.666;23.292;2023-02-16T05:22:18;95557.84;;;6.41;50.91
4469;BME280;2247;42.666;23.292;2023-02-16T05:24:45;95548.59;;;6.38;51.20
4469;BME280;2247;42.666;23.292;2023-02-16T05:27:14;95549.44;;;6.32;51.20
4469;BME280;2247;42.666;23.292;2023-02-16T05:29:41;95531.09;;;6.14;51.42
4469;BME280;2247;42.666;23.292;2023-02-16T05:32:10;95557.25;;;6.39;51.10
4469;BME280;2247;42.666;23.292;2023-02-16T05:34:37;95557.22;;;6.20;51.49
4469;BME280;2247;42.666;23.292;2023-02-16T05:37:05;95561.31;;;6.10;52.02
4469;BME280;2247;42.666;23.292;2023-02-16T05:39:32;95568.94;;;6.11;51.93
4469;BME280;2247;42.666;23.292;2023-02-16T05:41:59;95558.69;;;6.10;52.10
4469;BME280;2247;42.666;23.292;2023-02-16T05:44:26;95532.84;;;5.95;52.07
4469;BME280;2247;42.666;23.292;2023-02-16T05:46:54;95568.91;;;6.18;52.19
4469;BME280;2247;42.666;23.292;2023-02-16T05:49:22;95561.44;;;6.21;52.04
4469;BME280;2247;42.666;23.292;2023-02-16T05:51:49;95568.16;;;6.36;52.03
4469;BME280;2247;42.666;23.292;2023-02-16T05:54:16;95566.84;;;6.45;51.81
4469;BME280;2247;42.666;23.292;2023-02-16T05:56:44;95574.56;;;6.83;52.15
4469;BME280;2247;42.666;23.292;2023-02-16T05:59:11;95571.97;;;7.12;51.57
4469;BME280;2247;42.666;23.292;2023-02-16T06:01:38;95571.44;;;7.40;50.99
4469;BME280;2247;42.666;23.292;2023-02-16T06:04:06;95573.25;;;7.58;49.80
4469;BME280;2247;42.666;23.292;2023-02-16T06:06:35;95576.22;;;7.62;49.95
4469;BME280;2247;42.666;23.292;2023-02-16T06:09:03;95579.50;;;7.87;49.01
4469;BME280;2247;42.666;23.292;2023-02-16T06:11:30;95578.28;;;8.01;49.09
4469;BME280;2247;42.666;23.292;2023-02-16T06:14:04;95587.91;;;8.19;48.15
4469;BME280;2247;42.666;23.292;2023-02-16T06:16:33;95585.13;;;8.02;48.76
4469;BME280;2247;42.666;23.292;2023-02-16T06:19:00;95589.59;;;8.13;48.57
4469;BME280;2247;42.666;23.292;2023-02-16T06:21:27;95595.59;;;8.02;48.70
4469;BME280;2247;42.666;23.292;2023-02-16T06:23:56;95598.22;;;7.90;48.74
4469;BME280;2247;42.666;23.292;2023-02-16T06:26:23;95593.97;;;7.89;48.82
4469;BME280;2247;42.666;23.292;2023-02-16T06:28:50;95593.78;;;8.03;48.29
4469;BME280;2247;42.666;23.292;2023-02-16T06:31:17;95597.56;;;7.95;48.45
4469;BME280;2247;42.666;23.292;2023-02-16T06:33:45;95600.41;;;8.47;46.92
4469;BME280;2247;42.666;23.292;2023-02-16T06:36:12;95607.47;;;8.35;47.26
4469;BME280;2247;42.666;23.292;2023-02-16T06:38:39;95605.69;;;8.70;46.76
4469;BME280;2247;42.666;23.292;2023-02-16T06:41:08;95598.25;;;8.67;46.28
4469;BME280;2247;42.666;23.292;2023-02-16T06:43:35;95606.09;;;9.14;45.38
4469;BME280;2247;42.666;23.292;2023-02-16T06:46:02;95606.59;;;9.51;45.40
4469;BME280;2247;42.666;23.292;2023-02-16T06:48:29;95608.88;;;9.87;44.81
4469;BME280;2247;42.666;23.292;2023-02-16T06:50:56;95607.44;;;10.24;44.34
4469;BME280;2247;42.666;23.292;2023-02-16T06:53:23;95604.91;;;10.46;43.71
4469;BME280;2247;42.666;23.292;2023-02-16T06:55:50;95600.75;;;10.84;43.17
4469;BME280;2247;42.666;23.292;2023-02-16T06:58:19;95604.06;;;11.13;42.49
4469;BME280;2247;42.666;23.292;2023-02-16T07:00:45;95598.25;;;11.32;42.03
4469;BME280;2247;42.666;23.292;2023-02-16T07:03:13;95600.56;;;11.51;41.28
4469;BME280;2247;42.666;23.292;2023-02-16T07:05:39;95602.88;;;11.69;40.70
4469;BME280;2247;42.666;23.292;2023-02-16T07:08:08;95593.13;;;11.69;40.08
4469;BME280;2247;42.666;23.292;2023-02-16T07:10:35;95588.72;;;11.53;39.90
4469;BME280;2247;42.666;23.292;2023-02-16T07:13:02;95588.03;;;11.19;40.44
4469;BME280;2247;42.666;23.292;2023-02-16T07:15:30;95588.94;;;10.70;41.89
4469;BME280;2247;42.666;23.292;2023-02-16T07:17:57;95582.31;;;10.50;43.75
4469;BME280;2247;42.666;23.292;2023-02-16T07:20:24;95584.13;;;10.83;45.68
4469;BME280;2247;42.666;23.292;2023-02-16T07:22:52;95581.16;;;10.80;42.42
4469;BME280;2247;42.666;23.292;2023-02-16T07:25:20;95571.81;;;10.72;42.33
4469;BME280;2247;42.666;23.292;2023-02-16T07:27:49;95569.91;;;10.68;42.32
4469;BME280;2247;42.666;23.292;2023-02-16T07:30:16;95570.50;;;10.70;42.05
4469;BME280;2247;42.666;23.292;2023-02-16T07:32:44;95569.00;;;10.79;42.00
4469;BME280;2247;42.666;23.292;2023-02-16T07:35:11;95571.44;;;10.63;42.33
4469;BME280;2247;42.666;23.292;2023-02-16T07:37:39;95572.31;;;10.52;42.04
4469;BME280;2247;42.666;23.292;2023-02-16T07:40:07;95570.66;;;10.46;42.82
4469;BME280;2247;42.666;23.292;2023-02-16T07:42:34;95569.38;;;10.49;42.76
4469;BME280;2247;42.666;23.292;2023-02-16T07:45:00;95573.91;;;10.70;42.94
4469;BME280;2247;42.666;23.292;2023-02-16T07:47:27;95566.66;;;10.77;42.47
4469;BME280;2247;42.666;23.292;2023-02-16T07:49:56;95569.97;;;10.89;41.97
4469;BME280;2247;42.666;23.292;2023-02-16T07:52:23;95573.75;;;10.60;42.61
4469;BME280;2247;42.666;23.292;2023-02-16T07:54:55;95579.66;;;10.67;42.34
4469;BME280;2247;42.666;23.292;2023-02-16T07:57:23;95571.69;;;10.45;42.98
4469;BME280;2247;42.666;23.292;2023-02-16T07:59:50;95572.31;;;10.52;42.68
4469;BME280;2247;42.666;23.292;2023-02-16T08:02:18;95572.28;;;10.86;42.99
4469;BME280;2247;42.666;23.292;2023-02-16T08:04:45;95579.50;;;10.74;42.50
4469;BME280;2247;42.666;23.292;2023-02-16T08:07:15;95583.34;;;10.49;43.23
4469;BME280;2247;42.666;23.292;2023-02-16T08:09:42;95574.72;;;10.54;43.39
4469;BME280;2247;42.666;23.292;2023-02-16T08:12:10;95580.75;;;10.88;42.99
4469;BME280;2247;42.666;23.292;2023-02-16T08:14:38;95554.09;;;10.68;42.30
4469;BME280;2247;42.666;23.292;2023-02-16T08:17:05;95581.78;;;10.87;42.74
4469;BME280;2247;42.666;23.292;2023-02-16T08:19:33;95579.31;;;10.80;42.37
4469;BME280;2247;42.666;23.292;2023-02-16T08:22:01;95584.75;;;10.74;42.66
4469;BME280;2247;42.666;23.292;2023-02-16T08:24:30;95586.13;;;10.76;42.77
4469;BME280;2247;42.666;23.292;2023-02-16T08:26:58;95586.47;;;11.01;41.99
4469;BME280;2247;42.666;23.292;2023-02-16T08:29:28;95592.16;;;10.93;42.20
4469;BME280;2247;42.666;23.292;2023-02-16T08:31:55;95591.56;;;10.70;43.08
4469;BME280;2247;42.666;23.292;2023-02-16T08:34:24;95581.50;;;10.66;44.66
4469;BME280;2247;42.666;23.292;2023-02-16T08:36:52;95585.38;;;10.97;48.69
4469;BME280;2247;42.666;23.292;2023-02-16T08:39:23;95589.75;;;11.30;46.95
4469;BME280;2247;42.666;23.292;2023-02-16T08:41:52;95585.81;;;11.11;42.89
4469;BME280;2247;42.666;23.292;2023-02-16T08:44:20;95589.72;;;11.25;42.37
4469;BME280;2247;42.666;23.292;2023-02-16T08:46:48;95589.50;;;11.10;42.46
4469;BME280;2247;42.666;23.292;2023-02-16T08:49:16;95587.59;;;11.05;42.48
4469;BME280;2247;42.666;23.292;2023-02-16T08:51:45;95572.00;;;10.65;42.69
4469;BME280;2247;42.666;23.292;2023-02-16T08:54:15;95582.53;;;10.65;43.34
4469;BME280;2247;42.666;23.292;2023-02-16T08:56:42;95579.84;;;10.44;44.04
4469;BME280;2247;42.666;23.292;2023-02-16T08:59:13;95575.53;;;10.93;43.63
4469;BME280;2247;42.666;23.292;2023-02-16T09:01:40;95571.91;;;11.16;43.11
4469;BME280;2247;42.666;23.292;2023-02-16T09:04:07;95583.50;;;11.36;42.30
4469;BME280;2247;42.666;23.292;2023-02-16T09:06:36;95576.06;;;11.55;41.88
4469;BME280;2247;42.666;23.292;2023-02-16T09:09:03;95572.53;;;11.44;41.77
4469;BME280;2247;42.666;23.292;2023-02-16T09:11:30;95578.84;;;11.43;41.55
4469;BME280;2247;42.666;23.292;2023-02-16T09:13:58;95579.22;;;11.30;41.50
4469;BME280;2247;42.666;23.292;2023-02-16T09:16:27;95575.09;;;11.39;41.78
4469;BME280;2247;42.666;23.292;2023-02-16T09:18:58;95567.50;;;11.70;41.19
4469;BME280;2247;42.666;23.292;2023-02-16T09:21:26;95565.09;;;11.41;41.81
4469;BME280;2247;42.666;23.292;2023-02-16T09:23:56;95571.94;;;11.21;41.55
4469;BME280;2247;42.666;23.292;2023-02-16T09:26:25;95570.47;;;11.08;42.08
4469;BME280;2247;42.666;23.292;2023-02-16T09:28:53;95573.81;;;10.82;42.68
4469;BME280;2247;42.666;23.292;2023-02-16T09:31:23;95563.50;;;10.80;43.05
4469;BME280;2247;42.666;23.292;2023-02-16T09:33:54;95563.78;;;11.00;42.67
4469;BME280;2247;42.666;23.292;2023-02-16T09:36:21;95563.16;;;10.93;42.50
4469;BME280;2247;42.666;23.292;2023-02-16T09:38:48;95562.72;;;10.80;43.09
4469;BME280;2247;42.666;23.292;2023-02-16T09:41:22;95556.81;;;10.73;42.94
4469;BME280;2247;42.666;23.292;2023-02-16T09:43:55;95549.97;;;10.72;43.37
4469;BME280;2247;42.666;23.292;2023-02-16T09:46:24;95550.09;;;10.82;42.87
4469;BME280;2247;42.666;23.292;2023-02-16T09:48:53;95539.41;;;10.72;42.95
4469;BME280;2247;42.666;23.292;2023-02-16T09:51:23;95556.75;;;11.06;42.89
4469;BME280;2247;42.666;23.292;2023-02-16T09:53:55;95556.03;;;10.94;42.97
4469;BME280;2247;42.666;23.292;2023-02-16T09:56:26;95544.78;;;10.98;43.01
4469;BME280;2247;42.666;23.292;2023-02-16T09:59:01;95536.69;;;11.05;42.80
4469;BME280;2247;42.666;23.292;2023-02-16T10:01:35;95538.53;;;11.04;42.95
4469;BME280;2247;42.666;23.292;2023-02-16T10:04:23;95518.84;;;11.34;42.44
4469;BME280;2247;42.666;23.292;2023-02-16T10:07:02;95531.16;;;11.28;42.23
4469;BME280;2247;42.666;23.292;2023-02-16T10:09:31;95526.25;;;11.37;42.26
4469;BME280;2247;42.666;23.292;2023-02-16T10:12:03;95518.88;;;11.39;42.24
4469;BME280;2247;42.666;23.292;2023-02-16T10:14:36;95517.38;;;11.48;42.28
4469;BME280;2247;42.666;23.292;2023-02-16T10:17:12;95512.34;;;11.20;42.24
4469;BME280;2247;42.666;23.292;2023-02-16T10:19:47;95513.56;;;11.12;42.75
4469;BME280;2247;42.666;23.292;2023-02-16T10:22:27;95478.16;;;11.08;42.76
4469;BME280;2247;42.666;23.292;2023-02-16T10:24:59;95508.38;;;11.44;42.57
4469;BME280;2247;42.666;23.292;2023-02-16T10:27:33;95503.06;;;11.66;42.04
4469;BME280;2247;42.666;23.292;2023-02-16T10:30:10;95508.53;;;11.59;41.70
4469;BME280;2247;42.666;23.292;2023-02-16T10:32:43;95495.94;;;11.39;42.24
4469;BME280;2247;42.666;23.292;2023-02-16T10:35:20;95502.16;;;11.55;42.08
4469;BME280;2247;42.666;23.292;2023-02-16T10:37:57;95500.50;;;11.49;42.03
4469;BME280;2247;42.666;23.292;2023-02-16T10:40:32;95497.41;;;11.30;42.10
4469;BME280;2247;42.666;23.292;2023-02-16T10:43:05;95484.59;;;11.17;42.63
4469;BME280;2247;42.666;23.292;2023-02-16T10:45:42;95483.31;;;11.20;43.07
4469;BME280;2247;42.666;23.292;2023-02-16T10:48:12;95489.66;;;11.45;42.56
4469;BME280;2247;42.666;23.292;2023-02-16T10:50:42;95458.78;;;11.46;41.93
4469;BME280;2247;42.666;23.292;2023-02-16T10:53:14;95478.38;;;11.55;42.34
4469;BME280;2247;42.666;23.292;2023-02-16T10:55:43;95482.44;;;11.36;42.40
4469;BME280;2247;42.666;23.292;2023-02-16T10:58:16;95473.38;;;11.54;42.35
4469;BME280;2247;42.666;23.292;2023-02-16T11:00:51;95474.72;;;11.29;42.95
4469;BME280;2247;42.666;23.292;2023-02-16T11:03:24;95466.69;;;11.19;43.29
4469;BME280;2247;42.666;23.292;2023-02-16T11:05:53;95471.41;;;11.17;43.12
4469;BME280;2247;42.666;23.292;2023-02-16T11:08:20;95456.03;;;11.36;43.00
4469;BME280;2247;42.666;23.292;2023-02-16T11:10:50;95457.03;;;11.57;42.23
4469;BME280;2247;42.666;23.292;2023-02-16T11:13:27;95451.94;;;11.50;42.45
4469;BME280;2247;42.666;23.292;2023-02-16T11:15:57;95453.91;;;11.60;42.61
4469;BME280;2247;42.666;23.292;2023-02-16T11:18:34;95452.88;;;11.93;42.23
4469;BME280;2247;42.666;23.292;2023-02-16T11:21:04;95448.53;;;12.08;41.38
4469;BME280;2247;42.666;23.292;2023-02-16T11:23:33;95448.47;;;12.03;41.30
4469;BME280;2247;42.666;23.292;2023-02-16T11:26:04;95445.22;;;11.91;41.33
4469;BME280;2247;42.666;23.292;2023-02-16T11:28:33;95438.81;;;11.82;41.84
4469;BME280;2247;42.666;23.292;2023-02-16T11:31:18;95439.03;;;11.75;42.12
4469;BME280;2247;42.666;23.292;2023-02-16T11:33:56;95435.25;;;12.03;41.62
4469;BME280;2247;42.666;23.292;2023-02-16T11:36:31;95435.34;;;12.13;41.67
4469;BME280;2247;42.666;23.292;2023-02-16T11:39:01;95424.75;;;12.08;41.11
4469;BME280;2247;42.666;23.292;2023-02-16T11:41:30;95414.66;;;12.05;40.96
4469;BME280;2247;42.666;23.292;2023-02-16T11:44:00;95428.25;;;12.24;40.97
4469;BME280;2247;42.666;23.292;2023-02-16T11:46:28;95421.63;;;12.16;41.04
4469;BME280;2247;42.666;23.292;2023-02-16T11:49:26;95422.94;;;12.14;41.02
4469;BME280;2247;42.666;23.292;2023-02-16T11:51:55;95412.97;;;12.31;40.74
4469;BME280;2247;42.666;23.292;2023-02-16T11:54:22;95419.69;;;12.44;41.02
4469;BME280;2247;42.666;23.292;2023-02-16T11:57:03;95416.47;;;12.37;41.04
4469;BME280;2247;42.666;23.292;2023-02-16T11:59:34;95423.69;;;12.51;40.70
4469;BME280;2247;42.666;23.292;2023-02-16T12:05:09;95399.94;;;12.67;40.10
4469;BME280;2247;42.666;23.292;2023-02-16T12:07:49;95401.00;;;12.66;39.97
4469;BME280;2247;42.666;23.292;2023-02-16T12:10:22;95388.59;;;12.71;39.91
4469;BME280;2247;42.666;23.292;2023-02-16T12:12:55;95393.19;;;12.96;39.77
4469;BME280;2247;42.666;23.292;2023-02-16T12:15:31;95374.16;;;12.99;39.41
4469;BME280;2247;42.666;23.292;2023-02-16T12:18:17;95377.31;;;13.01;39.81
4469;BME280;2247;42.666;23.292;2023-02-16T12:20:51;95379.19;;;13.06;39.30
4469;BME280;2247;42.666;23.292;2023-02-16T12:23:32;95376.50;;;13.00;39.44
4469;BME280;2247;42.666;23.292;2023-02-16T12:26:24;95362.22;;;12.96;39.37
4469;BME280;2247;42.666;23.292;2023-02-16T12:29:00;95365.94;;;13.00;39.45
4469;BME280;2247;42.666;23.292;2023-02-16T12:31:43;95360.47;;;13.27;39.44
4469;BME280;2247;42.666;23.292;2023-02-16T12:34:22;95357.31;;;13.46;38.52
4469;BME280;2247;42.666;23.292;2023-02-16T12:36:58;95358.63;;;13.43;38.34
4469;BME280;2247;42.666;23.292;2023-02-16T12:39:41;95359.13;;;13.25;39.15
4469;BME280;2247;42.666;23.292;2023-02-16T12:42:33;95351.97;;;13.15;38.78
4469;BME280;2247;42.666;23.292;2023-02-16T12:45:08;95346.91;;;12.98;38.99
4469;BME280;2247;42.666;23.292;2023-02-16T12:47:42;95341.31;;;12.90;39.24
4469;BME280;2247;42.666;23.292;2023-02-16T12:50:17;95342.66;;;12.92;39.49
4469;BME280;2247;42.666;23.292;2023-02-16T12:52:48;95343.72;;;12.96;38.95
4469;BME280;2247;42.666;23.292;2023-02-16T12:55:22;95338.94;;;12.93;39.12
4469;BME280;2247;42.666;23.292;2023-02-16T12:57:56;95318.56;;;12.94;39.15
4469;BME280;2247;42.666;23.292;2023-02-16T13:00:27;95323.66;;;13.21;38.75
4469;BME280;2247;42.666;23.292;2023-02-16T13:03:19;95336.38;;;13.49;38.42
4469;BME280;2247;42.666;23.292;2023-02-16T13:05:56;95327.38;;;13.50;38.59
4469;BME280;2247;42.666;23.292;2023-02-16T13:08:29;95318.09;;;13.22;38.42
4469;BME280;2247;42.666;23.292;2023-02-16T13:11:10;95323.13;;;13.14;38.53
4469;BME280;2247;42.666;23.292;2023-02-16T13:13:43;95322.88;;;13.20;38.82
4469;BME280;2247;42.666;23.292;2023-02-16T13:16:15;95316.81;;;13.40;38.19
4469;BME280;2247;42.666;23.292;2023-02-16T13:18:47;95310.69;;;13.60;37.95
4469;BME280;2247;42.666;23.292;2023-02-16T13:21:34;95313.59;;;13.73;37.85
4469;BME280;2247;42.666;23.292;2023-02-16T13:24:10;95310.34;;;13.97;37.31
4469;BME280;2247;42.666;23.292;2023-02-16T13:26:50;95307.72;;;14.02;36.96
4469;BME280;2247;42.666;23.292;2023-02-16T13:29:36;95306.66;;;13.98;37.02
4469;BME280;2247;42.666;23.292;2023-02-16T13:32:37;95301.84;;;14.05;36.91
4469;BME280;2247;42.666;23.292;2023-02-16T13:35:27;95298.72;;;14.03;36.91
4469;BME280;2247;42.666;23.292;2023-02-16T13:38:22;95296.50;;;14.20;36.33
4469;BME280;2247;42.666;23.292;2023-02-16T13:41:08;95289.88;;;14.28;36.30
4469;BME280;2247;42.666;23.292;2023-02-16T13:43:42;95295.16;;;14.28;35.94
4469;BME280;2247;42.666;23.292;2023-02-16T13:46:15;95290.63;;;14.33;36.22
4469;BME280;2247;42.666;23.292;2023-02-16T13:48:48;95291.19;;;14.25;36.36
4469;BME280;2247;42.666;23.292;2023-02-16T13:51:20;95289.63;;;14.19;36.54